sensor_id;sensor_type;location;lat;lon;timestamp;temperature;humidity
23291;DHT22;11814;44.686;10.842;2024-03-25T00:00:11;10.30;94.30
23291;DHT22;11814;44.686;10.842;2024-03-25T00:02:38;10.30;94.60
23291;DHT22;11814;44.686;10.842;2024-03-25T00:05:04;10.30;94.30
23291;DHT22;11814;44.686;10.842;2024-03-25T00:07:31;10.20;93.50
23291;DHT22;11814;44.686;10.842;2024-03-25T00:09:56;10.10;92.40
23291;DHT22;11814;44.686;10.842;2024-03-25T00:12:27;10.00;91.50
23291;DHT22;11814;44.686;10.842;2024-03-25T00:14:52;9.80;90.80
23291;DHT22;11814;44.686;10.842;2024-03-25T00:17:18;9.70;90.40
23291;DHT22;11814;44.686;10.842;2024-03-25T00:19:48;9.60;90.10
23291;DHT22;11814;44.686;10.842;2024-03-25T00:22:18;9.50;89.90
23291;DHT22;11814;44.686;10.842;2024-03-25T00:24:45;9.50;89.70
23291;DHT22;11814;44.686;10.842;2024-03-25T00:27:12;9.50;89.30
23291;DHT22;11814;44.686;10.842;2024-03-25T00:29:37;9.50;88.70
23291;DHT22;11814;44.686;10.842;2024-03-25T00:32:04;9.40;88.10
23291;DHT22;11814;44.686;10.842;2024-03-25T00:34:30;9.40;87.60
23291;DHT22;11814;44.686;10.842;2024-03-25T00:36:55;9.30;87.30
23291;DHT22;11814;44.686;10.842;2024-03-25T00:39:21;9.40;87.30
23291;DHT22;11814;44.686;10.842;2024-03-25T00:41:51;9.20;87.20
23291;DHT22;11814;44.686;10.842;2024-03-25T00:44:17;9.10;87.20
23291;DHT22;11814;44.686;10.842;2024-03-25T00:46:42;9.10;87.30
23291;DHT22;11814;44.686;10.842;2024-03-25T00:49:08;9.10;88.00
23291;DHT22;11814;44.686;10.842;2024-03-25T00:51:34;9.10;87.10
23291;DHT22;11814;44.686;10.842;2024-03-25T00:54:00;9.20;87.10
23291;DHT22;11814;44.686;10.842;2024-03-25T00:56:25;9.10;87.10
23291;DHT22;11814;44.686;10.842;2024-03-25T00:58:51;9.20;87.00
23291;DHT22;11814;44.686;10.842;2024-03-25T01:01:17;9.30;86.60
23291;DHT22;11814;44.686;10.842;2024-03-25T01:03:42;9.30;86.30
23291;DHT22;11814;44.686;10.842;2024-03-25T01:06:08;9.50;85.70
23291;DHT22;11814;44.686;10.842;2024-03-25T01:08:33;9.30;85.00
23291;DHT22;11814;44.686;10.842;2024-03-25T01:10:59;9.30;84.90
23291;DHT22;11814;44.686;10.842;2024-03-25T01:13:25;9.30;85.00
23291;DHT22;11814;44.686;10.842;2024-03-25T01:15:51;9.50;85.20
23291;DHT22;11814;44.686;10.842;2024-03-25T01:18:17;9.40;85.30
23291;DHT22;11814;44.686;10.842;2024-03-25T01:20:43;9.20;85.70
23291;DHT22;11814;44.686;10.842;2024-03-25T01:23:10;9.30;86.20
23291;DHT22;11814;44.686;10.842;2024-03-25T01:25:35;9.20;86.40
23291;DHT22;11814;44.686;10.842;2024-03-25T01:28:01;9.20;86.80
23291;DHT22;11814;44.686;10.842;2024-03-25T01:30:27;9.20;87.00
23291;DHT22;11814;44.686;10.842;2024-03-25T01:32:54;9.20;87.30
23291;DHT22;11814;44.686;10.842;2024-03-25T01:35:20;9.10;87.70
23291;DHT22;11814;44.686;10.842;2024-03-25T01:37:45;9.20;88.50
23291;DHT22;11814;44.686;10.842;2024-03-25T01:40:11;9.20;89.30
23291;DHT22;11814;44.686;10.842;2024-03-25T01:42:37;9.20;89.70
23291;DHT22;11814;44.686;10.842;2024-03-25T01:45:03;9.20;90.00
23291;DHT22;11814;44.686;10.842;2024-03-25T01:47:31;9.20;90.30
23291;DHT22;11814;44.686;10.842;2024-03-25T01:49:59;9.20;90.60
23291;DHT22;11814;44.686;10.842;2024-03-25T01:52:25;9.10;91.00
23291;DHT22;11814;44.686;10.842;2024-03-25T01:54:52;9.10;91.30
23291;DHT22;11814;44.686;10.842;2024-03-25T01:57:19;9.00;91.80
23291;DHT22;11814;44.686;10.842;2024-03-25T01:59:45;9.10;92.20
23291;DHT22;11814;44.686;10.842;2024-03-25T02:02:12;9.10;92.70
23291;DHT22;11814;44.686;10.842;2024-03-25T02:04:39;9.10;92.80
23291;DHT22;11814;44.686;10.842;2024-03-25T02:07:07;9.00;93.10
23291;DHT22;11814;44.686;10.842;2024-03-25T02:09:34;9.00;93.70
23291;DHT22;11814;44.686;10.842;2024-03-25T02:12:02;9.00;94.10
23291;DHT22;11814;44.686;10.842;2024-03-25T02:14:27;8.90;94.30
23291;DHT22;11814;44.686;10.842;2024-03-25T02:16:53;8.90;94.60
23291;DHT22;11814;44.686;10.842;2024-03-25T02:19:20;8.80;94.50
23291;DHT22;11814;44.686;10.842;2024-03-25T02:21:47;8.80;94.50
23291;DHT22;11814;44.686;10.842;2024-03-25T02:24:14;8.80;94.50
23291;DHT22;11814;44.686;10.842;2024-03-25T02:26:41;8.80;94.50
23291;DHT22;11814;44.686;10.842;2024-03-25T02:29:09;8.80;94.30
23291;DHT22;11814;44.686;10.842;2024-03-25T02:31:35;8.80;94.30
23291;DHT22;11814;44.686;10.842;2024-03-25T02:34:00;8.70;94.00
23291;DHT22;11814;44.686;10.842;2024-03-25T02:36:26;8.70;93.50
23291;DHT22;11814;44.686;10.842;2024-03-25T02:38:51;8.60;93.10
23291;DHT22;11814;44.686;10.842;2024-03-25T02:41:21;8.60;92.80
23291;DHT22;11814;44.686;10.842;2024-03-25T02:43:49;8.60;92.70
23291;DHT22;11814;44.686;10.842;2024-03-25T02:46:15;8.50;92.50
23291;DHT22;11814;44.686;10.842;2024-03-25T02:48:41;8.50;92.60
23291;DHT22;11814;44.686;10.842;2024-03-25T02:51:06;8.50;92.30
23291;DHT22;11814;44.686;10.842;2024-03-25T02:53:32;8.40;92.00
23291;DHT22;11814;44.686;10.842;2024-03-25T02:55:57;8.40;92.00
23291;DHT22;11814;44.686;10.842;2024-03-25T02:58:23;8.40;91.90
23291;DHT22;11814;44.686;10.842;2024-03-25T03:00:48;8.40;91.70
23291;DHT22;11814;44.686;10.842;2024-03-25T03:03:14;8.50;91.60
23291;DHT22;11814;44.686;10.842;2024-03-25T03:05:40;8.50;91.20
23291;DHT22;11814;44.686;10.842;2024-03-25T03:08:05;8.50;90.80
23291;DHT22;11814;44.686;10.842;2024-03-25T03:10:31;8.50;90.20
23291;DHT22;11814;44.686;10.842;2024-03-25T03:12:56;8.50;90.40
23291;DHT22;11814;44.686;10.842;2024-03-25T03:15:22;8.50;90.50
23291;DHT22;11814;44.686;10.842;2024-03-25T03:17:48;8.50;90.30
23291;DHT22;11814;44.686;10.842;2024-03-25T03:20:13;8.60;90.10
23291;DHT22;11814;44.686;10.842;2024-03-25T03:22:39;8.50;90.10
23291;DHT22;11814;44.686;10.842;2024-03-25T03:25:05;8.40;90.00
23291;DHT22;11814;44.686;10.842;2024-03-25T03:27:30;8.30;89.60
23291;DHT22;11814;44.686;10.842;2024-03-25T03:29:56;8.30;89.60
23291;DHT22;11814;44.686;10.842;2024-03-25T03:32:22;8.30;89.50
23291;DHT22;11814;44.686;10.842;2024-03-25T03:34:48;8.30;89.60
23291;DHT22;11814;44.686;10.842;2024-03-25T03:37:13;8.30;89.20
23291;DHT22;11814;44.686;10.842;2024-03-25T03:39:39;8.20;89.10
23291;DHT22;11814;44.686;10.842;2024-03-25T03:42:04;8.20;88.90
23291;DHT22;11814;44.686;10.842;2024-03-25T03:44:30;8.20;88.70
23291;DHT22;11814;44.686;10.842;2024-03-25T03:46:56;8.20;88.80
23291;DHT22;11814;44.686;10.842;2024-03-25T03:49:21;8.20;88.70
23291;DHT22;11814;44.686;10.842;2024-03-25T03:51:47;8.20;88.90
23291;DHT22;11814;44.686;10.842;2024-03-25T03:54:13;8.20;89.80
23291;DHT22;11814;44.686;10.842;2024-03-25T03:56:39;8.10;88.70
23291;DHT22;11814;44.686;10.842;2024-03-25T03:59:04;8.00;88.40
23291;DHT22;11814;44.686;10.842;2024-03-25T04:01:30;7.90;88.70
23291;DHT22;11814;44.686;10.842;2024-03-25T04:03:55;7.80;89.00
23291;DHT22;11814;44.686;10.842;2024-03-25T04:06:21;7.80;88.90
23291;DHT22;11814;44.686;10.842;2024-03-25T04:08:46;7.80;88.80
23291;DHT22;11814;44.686;10.842;2024-03-25T04:11:12;7.80;88.80
23291;DHT22;11814;44.686;10.842;2024-03-25T04:13:38;7.90;89.00
23291;DHT22;11814;44.686;10.842;2024-03-25T04:16:05;7.90;88.60
23291;DHT22;11814;44.686;10.842;2024-03-25T04:18:32;7.90;88.20
23291;DHT22;11814;44.686;10.842;2024-03-25T04:20:58;7.90;88.70
23291;DHT22;11814;44.686;10.842;2024-03-25T04:23:24;7.90;88.50
23291;DHT22;11814;44.686;10.842;2024-03-25T04:25:50;7.80;88.50
23291;DHT22;11814;44.686;10.842;2024-03-25T04:28:16;7.80;88.70
23291;DHT22;11814;44.686;10.842;2024-03-25T04:30:41;7.70;88.60
23291;DHT22;11814;44.686;10.842;2024-03-25T04:33:07;7.60;88.60
23291;DHT22;11814;44.686;10.842;2024-03-25T04:35:33;7.60;88.90
23291;DHT22;11814;44.686;10.842;2024-03-25T04:37:59;7.60;89.20
23291;DHT22;11814;44.686;10.842;2024-03-25T04:40:25;7.60;88.80
23291;DHT22;11814;44.686;10.842;2024-03-25T04:42:50;7.60;88.50
23291;DHT22;11814;44.686;10.842;2024-03-25T04:45:16;7.70;88.30
23291;DHT22;11814;44.686;10.842;2024-03-25T04:47:42;7.70;88.20
23291;DHT22;11814;44.686;10.842;2024-03-25T04:50:08;7.70;88.20
23291;DHT22;11814;44.686;10.842;2024-03-25T04:52:34;7.80;88.00
23291;DHT22;11814;44.686;10.842;2024-03-25T04:55:00;7.80;88.70
23291;DHT22;11814;44.686;10.842;2024-03-25T04:57:25;7.90;88.10
23291;DHT22;11814;44.686;10.842;2024-03-25T04:59:51;7.90;87.60
23291;DHT22;11814;44.686;10.842;2024-03-25T05:02:17;7.80;87.70
23291;DHT22;11814;44.686;10.842;2024-03-25T05:04:43;7.80;87.90
23291;DHT22;11814;44.686;10.842;2024-03-25T05:07:08;7.70;88.30
23291;DHT22;11814;44.686;10.842;2024-03-25T05:09:34;7.70;88.90
23291;DHT22;11814;44.686;10.842;2024-03-25T05:12:00;7.80;88.80
23291;DHT22;11814;44.686;10.842;2024-03-25T05:14:25;7.70;88.90
23291;DHT22;11814;44.686;10.842;2024-03-25T05:16:51;7.60;89.30
23291;DHT22;11814;44.686;10.842;2024-03-25T05:19:18;7.50;89.60
23291;DHT22;11814;44.686;10.842;2024-03-25T05:21:44;7.50;90.00
23291;DHT22;11814;44.686;10.842;2024-03-25T05:24:12;7.40;89.80
23291;DHT22;11814;44.686;10.842;2024-03-25T05:26:38;7.30;90.00
23291;DHT22;11814;44.686;10.842;2024-03-25T05:29:03;7.20;90.40
23291;DHT22;11814;44.686;10.842;2024-03-25T05:31:29;7.40;90.70
23291;DHT22;11814;44.686;10.842;2024-03-25T05:33:56;7.40;90.50
23291;DHT22;11814;44.686;10.842;2024-03-25T05:36:21;7.60;90.20
23291;DHT22;11814;44.686;10.842;2024-03-25T05:38:47;7.70;89.80
23291;DHT22;11814;44.686;10.842;2024-03-25T05:41:12;8.10;89.70
23291;DHT22;11814;44.686;10.842;2024-03-25T05:43:38;8.60;89.10
23291;DHT22;11814;44.686;10.842;2024-03-25T05:46:04;9.00;86.40
23291;DHT22;11814;44.686;10.842;2024-03-25T05:48:30;9.30;84.10
23291;DHT22;11814;44.686;10.842;2024-03-25T05:51:00;9.50;82.80
23291;DHT22;11814;44.686;10.842;2024-03-25T05:53:27;9.80;81.40
23291;DHT22;11814;44.686;10.842;2024-03-25T05:55:53;10.00;80.10
23291;DHT22;11814;44.686;10.842;2024-03-25T05:58:18;10.50;79.20
23291;DHT22;11814;44.686;10.842;2024-03-25T06:00:47;10.50;77.80
23291;DHT22;11814;44.686;10.842;2024-03-25T06:03:12;10.60;76.80
23291;DHT22;11814;44.686;10.842;2024-03-25T06:05:38;10.70;76.30
23291;DHT22;11814;44.686;10.842;2024-03-25T06:08:04;10.80;75.70
23291;DHT22;11814;44.686;10.842;2024-03-25T06:10:34;11.10;75.10
23291;DHT22;11814;44.686;10.842;2024-03-25T06:13:00;11.30;74.10
23291;DHT22;11814;44.686;10.842;2024-03-25T06:15:25;11.80;73.40
23291;DHT22;11814;44.686;10.842;2024-03-25T06:17:51;12.30;72.00
23291;DHT22;11814;44.686;10.842;2024-03-25T06:20:16;13.00;70.40
23291;DHT22;11814;44.686;10.842;2024-03-25T06:22:42;13.50;68.10
23291;DHT22;11814;44.686;10.842;2024-03-25T06:25:07;13.70;67.00
23291;DHT22;11814;44.686;10.842;2024-03-25T06:27:33;14.20;66.70
23291;DHT22;11814;44.686;10.842;2024-03-25T06:29:59;14.90;65.30
23291;DHT22;11814;44.686;10.842;2024-03-25T06:32:44;15.40;63.40
23291;DHT22;11814;44.686;10.842;2024-03-25T06:35:28;16.50;62.20
23291;DHT22;11814;44.686;10.842;2024-03-25T06:37:54;17.60;59.60
23291;DHT22;11814;44.686;10.842;2024-03-25T06:40:20;18.60;57.20
23291;DHT22;11814;44.686;10.842;2024-03-25T06:42:47;19.80;54.70
23291;DHT22;11814;44.686;10.842;2024-03-25T06:45:13;21.10;52.40
23291;DHT22;11814;44.686;10.842;2024-03-25T06:47:40;22.40;50.00
23291;DHT22;11814;44.686;10.842;2024-03-25T06:50:06;23.30;47.40
23291;DHT22;11814;44.686;10.842;2024-03-25T06:52:32;24.20;45.80
23291;DHT22;11814;44.686;10.842;2024-03-25T06:54:57;25.30;43.70
23291;DHT22;11814;44.686;10.842;2024-03-25T06:57:23;26.00;41.70
23291;DHT22;11814;44.686;10.842;2024-03-25T06:59:48;26.50;39.90
23291;DHT22;11814;44.686;10.842;2024-03-25T07:02:14;27.00;38.20
23291;DHT22;11814;44.686;10.842;2024-03-25T07:04:39;27.50;36.60
23291;DHT22;11814;44.686;10.842;2024-03-25T07:07:05;27.80;35.90
23291;DHT22;11814;44.686;10.842;2024-03-25T07:09:31;28.10;35.30
23291;DHT22;11814;44.686;10.842;2024-03-25T07:11:56;28.50;34.80
23291;DHT22;11814;44.686;10.842;2024-03-25T07:14:22;28.80;33.80
23291;DHT22;11814;44.686;10.842;2024-03-25T07:16:48;28.60;32.50
23291;DHT22;11814;44.686;10.842;2024-03-25T07:19:13;28.90;31.50
23291;DHT22;11814;44.686;10.842;2024-03-25T07:21:39;29.20;30.80
23291;DHT22;11814;44.686;10.842;2024-03-25T07:24:05;29.60;30.10
23291;DHT22;11814;44.686;10.842;2024-03-25T07:26:30;30.10;29.70
23291;DHT22;11814;44.686;10.842;2024-03-25T07:28:56;30.40;28.90
23291;DHT22;11814;44.686;10.842;2024-03-25T07:31:21;30.80;28.50
23291;DHT22;11814;44.686;10.842;2024-03-25T07:33:47;31.10;28.00
23291;DHT22;11814;44.686;10.842;2024-03-25T07:36:12;31.30;27.50
23291;DHT22;11814;44.686;10.842;2024-03-25T07:38:38;31.50;26.80
23291;DHT22;11814;44.686;10.842;2024-03-25T07:41:05;31.90;26.50
23291;DHT22;11814;44.686;10.842;2024-03-25T07:43:30;32.60;26.10
23291;DHT22;11814;44.686;10.842;2024-03-25T07:45:56;33.10;25.40
23291;DHT22;11814;44.686;10.842;2024-03-25T07:48:21;33.20;25.20
23291;DHT22;11814;44.686;10.842;2024-03-25T07:50:47;33.30;25.20
23291;DHT22;11814;44.686;10.842;2024-03-25T07:53:13;33.50;25.10
23291;DHT22;11814;44.686;10.842;2024-03-25T07:55:41;33.50;25.10
23291;DHT22;11814;44.686;10.842;2024-03-25T07:58:07;33.50;25.10
23291;DHT22;11814;44.686;10.842;2024-03-25T08:00:32;33.60;25.10
23291;DHT22;11814;44.686;10.842;2024-03-25T08:03:00;33.70;25.00
23291;DHT22;11814;44.686;10.842;2024-03-25T08:05:25;33.90;24.90
23291;DHT22;11814;44.686;10.842;2024-03-25T08:07:51;33.70;24.90
23291;DHT22;11814;44.686;10.842;2024-03-25T08:10:19;33.80;25.60
23291;DHT22;11814;44.686;10.842;2024-03-25T08:12:45;33.80;25.10
23291;DHT22;11814;44.686;10.842;2024-03-25T08:15:10;33.80;25.40
23291;DHT22;11814;44.686;10.842;2024-03-25T08:17:36;34.00;25.60
23291;DHT22;11814;44.686;10.842;2024-03-25T08:20:01;34.00;25.50
23291;DHT22;11814;44.686;10.842;2024-03-25T08:22:28;33.90;25.70
23291;DHT22;11814;44.686;10.842;2024-03-25T08:24:54;33.90;25.90
23291;DHT22;11814;44.686;10.842;2024-03-25T08:27:19;33.80;26.10
23291;DHT22;11814;44.686;10.842;2024-03-25T08:29:45;33.80;26.20
23291;DHT22;11814;44.686;10.842;2024-03-25T08:32:11;33.70;26.30
23291;DHT22;11814;44.686;10.842;2024-03-25T08:34:36;33.70;26.30
23291;DHT22;11814;44.686;10.842;2024-03-25T08:37:02;33.90;26.20
23291;DHT22;11814;44.686;10.842;2024-03-25T08:39:29;34.00;26.10
23291;DHT22;11814;44.686;10.842;2024-03-25T08:41:55;34.00;26.30
23291;DHT22;11814;44.686;10.842;2024-03-25T08:44:20;34.00;26.50
23291;DHT22;11814;44.686;10.842;2024-03-25T08:46:46;34.20;26.40
23291;DHT22;11814;44.686;10.842;2024-03-25T08:49:12;34.10;26.30
23291;DHT22;11814;44.686;10.842;2024-03-25T08:51:37;34.00;26.20
23291;DHT22;11814;44.686;10.842;2024-03-25T08:54:03;34.00;26.30
23291;DHT22;11814;44.686;10.842;2024-03-25T08:56:29;34.30;26.10
23291;DHT22;11814;44.686;10.842;2024-03-25T08:58:54;34.50;25.60
23291;DHT22;11814;44.686;10.842;2024-03-25T09:01:20;34.80;25.60
23291;DHT22;11814;44.686;10.842;2024-03-25T09:03:46;35.00;25.50
23291;DHT22;11814;44.686;10.842;2024-03-25T09:06:11;34.80;25.30
23291;DHT22;11814;44.686;10.842;2024-03-25T09:08:37;34.60;25.60
23291;DHT22;11814;44.686;10.842;2024-03-25T09:11:23;34.30;25.70
23291;DHT22;11814;44.686;10.842;2024-03-25T09:13:50;34.20;26.10
23291;DHT22;11814;44.686;10.842;2024-03-25T09:16:16;34.70;26.30
23291;DHT22;11814;44.686;10.842;2024-03-25T09:18:41;34.60;26.50
23291;DHT22;11814;44.686;10.842;2024-03-25T09:21:07;34.60;26.60
23291;DHT22;11814;44.686;10.842;2024-03-25T09:23:33;34.40;26.70
23291;DHT22;11814;44.686;10.842;2024-03-25T09:25:58;34.20;26.90
23291;DHT22;11814;44.686;10.842;2024-03-25T09:28:24;34.40;27.00
23291;DHT22;11814;44.686;10.842;2024-03-25T09:30:49;34.40;27.10
23291;DHT22;11814;44.686;10.842;2024-03-25T09:33:15;34.30;27.00
23291;DHT22;11814;44.686;10.842;2024-03-25T09:35:41;33.90;27.30
23291;DHT22;11814;44.686;10.842;2024-03-25T09:38:06;33.80;27.60
23291;DHT22;11814;44.686;10.842;2024-03-25T09:40:34;33.90;27.70
23291;DHT22;11814;44.686;10.842;2024-03-25T09:43:02;33.50;28.00
23291;DHT22;11814;44.686;10.842;2024-03-25T09:45:29;33.10;28.10
23291;DHT22;11814;44.686;10.842;2024-03-25T09:47:55;32.40;28.70
23291;DHT22;11814;44.686;10.842;2024-03-25T09:50:21;32.20;29.10
23291;DHT22;11814;44.686;10.842;2024-03-25T09:52:50;32.30;29.30
23291;DHT22;11814;44.686;10.842;2024-03-25T09:55:17;32.40;29.40
23291;DHT22;11814;44.686;10.842;2024-03-25T09:57:43;32.00;29.40
23291;DHT22;11814;44.686;10.842;2024-03-25T10:00:10;31.40;30.10
23291;DHT22;11814;44.686;10.842;2024-03-25T10:02:40;31.50;30.60
23291;DHT22;11814;44.686;10.842;2024-03-25T10:05:07;31.30;30.20
23291;DHT22;11814;44.686;10.842;2024-03-25T10:07:33;31.00;30.30
23291;DHT22;11814;44.686;10.842;2024-03-25T10:09:59;30.70;30.60
23291;DHT22;11814;44.686;10.842;2024-03-25T10:12:28;30.20;31.30
23291;DHT22;11814;44.686;10.842;2024-03-25T10:14:54;30.00;32.50
23291;DHT22;11814;44.686;10.842;2024-03-25T10:17:19;30.00;31.80
23291;DHT22;11814;44.686;10.842;2024-03-25T10:19:45;30.00;31.90
23291;DHT22;11814;44.686;10.842;2024-03-25T10:22:10;29.80;32.40
23291;DHT22;11814;44.686;10.842;2024-03-25T10:24:44;29.40;32.50
23291;DHT22;11814;44.686;10.842;2024-03-25T10:27:17;28.20;33.40
23291;DHT22;11814;44.686;10.842;2024-03-25T10:29:45;27.50;34.50
23291;DHT22;11814;44.686;10.842;2024-03-25T10:32:13;27.10;35.40
23291;DHT22;11814;44.686;10.842;2024-03-25T10:34:40;26.70;36.10
23291;DHT22;11814;44.686;10.842;2024-03-25T10:37:09;26.60;36.20
23291;DHT22;11814;44.686;10.842;2024-03-25T10:39:39;26.30;36.40
23291;DHT22;11814;44.686;10.842;2024-03-25T10:42:11;26.30;37.10
23291;DHT22;11814;44.686;10.842;2024-03-25T10:44:38;26.10;37.20
23291;DHT22;11814;44.686;10.842;2024-03-25T10:47:05;26.10;37.40
23291;DHT22;11814;44.686;10.842;2024-03-25T10:49:49;25.70;37.80
23291;DHT22;11814;44.686;10.842;2024-03-25T10:52:15;25.50;38.30
23291;DHT22;11814;44.686;10.842;2024-03-25T10:54:43;25.20;38.80
23291;DHT22;11814;44.686;10.842;2024-03-25T10:57:11;25.10;39.30
23291;DHT22;11814;44.686;10.842;2024-03-25T10:59:38;24.80;39.40
23291;DHT22;11814;44.686;10.842;2024-03-25T11:02:07;24.90;39.90
23291;DHT22;11814;44.686;10.842;2024-03-25T11:04:33;24.80;39.80
23291;DHT22;11814;44.686;10.842;2024-03-25T11:07:13;24.90;40.30
23291;DHT22;11814;44.686;10.842;2024-03-25T11:09:40;25.00;40.90
23291;DHT22;11814;44.686;10.842;2024-03-25T11:12:07;25.20;40.80
23291;DHT22;11814;44.686;10.842;2024-03-25T11:14:34;25.00;40.40
23291;DHT22;11814;44.686;10.842;2024-03-25T11:17:01;24.80;40.70
23291;DHT22;11814;44.686;10.842;2024-03-25T11:19:28;24.60;40.80
23291;DHT22;11814;44.686;10.842;2024-03-25T11:22:07;24.50;40.40
23291;DHT22;11814;44.686;10.842;2024-03-25T11:24:34;24.60;40.50
23291;DHT22;11814;44.686;10.842;2024-03-25T11:27:02;24.50;41.30
23291;DHT22;11814;44.686;10.842;2024-03-25T11:29:28;24.60;41.30
23291;DHT22;11814;44.686;10.842;2024-03-25T11:31:55;24.10;41.50
23291;DHT22;11814;44.686;10.842;2024-03-25T11:34:24;24.00;41.80
23291;DHT22;11814;44.686;10.842;2024-03-25T11:36:49;24.00;41.90
23291;DHT22;11814;44.686;10.842;2024-03-25T11:39:16;24.00;42.10
23291;DHT22;11814;44.686;10.842;2024-03-25T11:41:42;24.10;41.90
23291;DHT22;11814;44.686;10.842;2024-03-25T11:44:09;23.80;41.80
23291;DHT22;11814;44.686;10.842;2024-03-25T11:46:36;23.60;42.40
23291;DHT22;11814;44.686;10.842;2024-03-25T11:49:05;23.70;42.30
23291;DHT22;11814;44.686;10.842;2024-03-25T11:51:32;23.80;42.40
23291;DHT22;11814;44.686;10.842;2024-03-25T11:53:58;23.80;42.80
23291;DHT22;11814;44.686;10.842;2024-03-25T11:56:25;23.70;42.40
23291;DHT22;11814;44.686;10.842;2024-03-25T11:58:51;23.50;42.60
23291;DHT22;11814;44.686;10.842;2024-03-25T12:01:16;23.60;42.30
23291;DHT22;11814;44.686;10.842;2024-03-25T12:03:42;23.80;41.80
23291;DHT22;11814;44.686;10.842;2024-03-25T12:06:08;23.90;41.70
23291;DHT22;11814;44.686;10.842;2024-03-25T12:08:36;24.20;41.60
23291;DHT22;11814;44.686;10.842;2024-03-25T12:11:10;24.00;41.60
23291;DHT22;11814;44.686;10.842;2024-03-25T12:13:45;23.90;42.40
23291;DHT22;11814;44.686;10.842;2024-03-25T12:16:12;24.00;43.10
23291;DHT22;11814;44.686;10.842;2024-03-25T12:18:43;24.20;42.70
23291;DHT22;11814;44.686;10.842;2024-03-25T12:21:10;24.20;42.20
23291;DHT22;11814;44.686;10.842;2024-03-25T12:23:36;23.80;40.30
23291;DHT22;11814;44.686;10.842;2024-03-25T12:26:02;23.60;40.80
23291;DHT22;11814;44.686;10.842;2024-03-25T12:28:31;23.60;41.30
23291;DHT22;11814;44.686;10.842;2024-03-25T12:30:56;23.60;41.90
23291;DHT22;11814;44.686;10.842;2024-03-25T12:33:23;23.40;41.30
23291;DHT22;11814;44.686;10.842;2024-03-25T12:35:49;23.30;41.50
23291;DHT22;11814;44.686;10.842;2024-03-25T12:38:28;23.30;41.40
23291;DHT22;11814;44.686;10.842;2024-03-25T12:41:07;23.20;41.30
23291;DHT22;11814;44.686;10.842;2024-03-25T12:43:43;22.80;41.90
23291;DHT22;11814;44.686;10.842;2024-03-25T12:46:10;22.60;42.10
23291;DHT22;11814;44.686;10.842;2024-03-25T12:48:38;22.30;42.10
23291;DHT22;11814;44.686;10.842;2024-03-25T12:51:04;22.30;42.10
23291;DHT22;11814;44.686;10.842;2024-03-25T12:53:32;22.10;41.60
23291;DHT22;11814;44.686;10.842;2024-03-25T12:55:59;22.20;41.40
23291;DHT22;11814;44.686;10.842;2024-03-25T12:58:24;22.30;40.60
23291;DHT22;11814;44.686;10.842;2024-03-25T13:00:50;22.30;40.50
23291;DHT22;11814;44.686;10.842;2024-03-25T13:03:16;22.20;41.40
23291;DHT22;11814;44.686;10.842;2024-03-25T13:05:43;22.30;41.60
23291;DHT22;11814;44.686;10.842;2024-03-25T13:08:09;22.20;41.60
23291;DHT22;11814;44.686;10.842;2024-03-25T13:10:35;22.30;42.30
23291;DHT22;11814;44.686;10.842;2024-03-25T13:13:01;22.20;40.90
23291;DHT22;11814;44.686;10.842;2024-03-25T13:15:27;22.10;40.50
23291;DHT22;11814;44.686;10.842;2024-03-25T13:17:53;21.90;40.40
23291;DHT22;11814;44.686;10.842;2024-03-25T13:20:19;22.10;40.90
23291;DHT22;11814;44.686;10.842;2024-03-25T13:22:45;22.30;40.50
23291;DHT22;11814;44.686;10.842;2024-03-25T13:25:12;22.50;40.00
23291;DHT22;11814;44.686;10.842;2024-03-25T13:27:38;22.70;39.10
23291;DHT22;11814;44.686;10.842;2024-03-25T13:30:05;22.60;37.60
23291;DHT22;11814;44.686;10.842;2024-03-25T13:32:30;22.40;37.80
23291;DHT22;11814;44.686;10.842;2024-03-25T13:34:56;22.30;37.30
23291;DHT22;11814;44.686;10.842;2024-03-25T13:37:21;22.40;37.90
23291;DHT22;11814;44.686;10.842;2024-03-25T13:39:47;22.60;38.80
23291;DHT22;11814;44.686;10.842;2024-03-25T13:42:15;22.70;38.50
23291;DHT22;11814;44.686;10.842;2024-03-25T13:44:41;22.70;38.50
23291;DHT22;11814;44.686;10.842;2024-03-25T13:47:06;22.60;38.30
23291;DHT22;11814;44.686;10.842;2024-03-25T13:49:34;22.70;38.70
23291;DHT22;11814;44.686;10.842;2024-03-25T13:51:59;22.60;38.90
23291;DHT22;11814;44.686;10.842;2024-03-25T13:54:28;22.50;38.90
23291;DHT22;11814;44.686;10.842;2024-03-25T13:56:56;22.40;39.90
23291;DHT22;11814;44.686;10.842;2024-03-25T13:59:21;22.20;39.60
23291;DHT22;11814;44.686;10.842;2024-03-25T14:01:47;21.80;40.00
23291;DHT22;11814;44.686;10.842;2024-03-25T14:04:13;21.60;40.70
23291;DHT22;11814;44.686;10.842;2024-03-25T14:06:39;21.40;41.20
23291;DHT22;11814;44.686;10.842;2024-03-25T14:09:06;21.40;41.60
23291;DHT22;11814;44.686;10.842;2024-03-25T14:11:35;21.40;41.70
23291;DHT22;11814;44.686;10.842;2024-03-25T14:14:01;21.30;42.00
23291;DHT22;11814;44.686;10.842;2024-03-25T14:16:28;21.20;41.90
23291;DHT22;11814;44.686;10.842;2024-03-25T14:18:53;21.10;41.70
23291;DHT22;11814;44.686;10.842;2024-03-25T14:21:19;21.10;42.10
23291;DHT22;11814;44.686;10.842;2024-03-25T14:23:45;21.10;41.70
23291;DHT22;11814;44.686;10.842;2024-03-25T14:26:12;20.90;41.70
23291;DHT22;11814;44.686;10.842;2024-03-25T14:28:40;20.90;41.80
23291;DHT22;11814;44.686;10.842;2024-03-25T14:31:06;20.90;41.80
23291;DHT22;11814;44.686;10.842;2024-03-25T14:33:31;21.00;41.90
23291;DHT22;11814;44.686;10.842;2024-03-25T14:35:57;21.00;41.80
23291;DHT22;11814;44.686;10.842;2024-03-25T14:38:23;21.00;41.90
23291;DHT22;11814;44.686;10.842;2024-03-25T14:40:48;21.00;41.90
23291;DHT22;11814;44.686;10.842;2024-03-25T14:43:14;21.10;41.90
23291;DHT22;11814;44.686;10.842;2024-03-25T14:45:41;21.10;41.80
23291;DHT22;11814;44.686;10.842;2024-03-25T14:48:07;20.90;42.00
23291;DHT22;11814;44.686;10.842;2024-03-25T14:50:32;20.80;42.40
23291;DHT22;11814;44.686;10.842;2024-03-25T14:52:58;20.90;43.30
23291;DHT22;11814;44.686;10.842;2024-03-25T14:55:23;20.90;42.60
23291;DHT22;11814;44.686;10.842;2024-03-25T14:57:49;20.80;42.70
23291;DHT22;11814;44.686;10.842;2024-03-25T15:00:15;20.80;43.00
23291;DHT22;11814;44.686;10.842;2024-03-25T15:02:41;20.90;43.10
23291;DHT22;11814;44.686;10.842;2024-03-25T15:05:06;21.00;42.60
23291;DHT22;11814;44.686;10.842;2024-03-25T15:07:32;21.10;42.20
23291;DHT22;11814;44.686;10.842;2024-03-25T15:09:58;21.20;41.80
23291;DHT22;11814;44.686;10.842;2024-03-25T15:12:23;21.20;41.00
23291;DHT22;11814;44.686;10.842;2024-03-25T15:14:52;21.00;40.90
23291;DHT22;11814;44.686;10.842;2024-03-25T15:17:17;21.00;41.40